Ride Results

Oz Endurance @ Inglewood (20-11-2021)
Ride distance: 80.0 km

Outcomes - Oz Endurance @ Inglewood (20-11-2021)
Division No. of Entries Retired / DNE Completed Withdrawn Ineligible V/O Percentage Completed
HW 8 - 5 - - 3 62.50%
MW 12 - 7 - - 5 58.33%
LW 9 - 7 - - 2 77.78%
JN 8 - 6 - - 2 75.00%
Totals 37 - 25 - - 12 67.57%
Results - Oz Endurance @ Inglewood (20-11-2021)
No. Rider Horse Place Time Leg Speeds Total
Km/Hr
H/R bpm
Heavyweight
85 Abraham De Klerk Aloha Desert Thor 1 (BC) 6:48:00 11.4, 12.0 11.76 34, 51, 48 (Avg:49)
69 Troy Butler Ransome Rascal 2 7:00:00 11.4, 11.3 11.43 36, 51, 52 (Avg:51)
122 Peter Field Rkayn Xuberant 3 7:44:00 10.1, 10.5 10.34 40, 49, 48 (Avg:48)
113 Rod Strahan Shardell Gangster 4 7:49:00 12.1, 8.8 10.23 42, 55, 58 (Avg:56)
66 Dave Toft New Sensation TA 5 8:09:00 10.7, 9.0 9.82 36, 50, 50 (Avg:50)
72 Matthew Gadsby Ra Silver Dancer Metabolics L2 6:11:00 11.5, 14.7 12.94 31, 53, 48 (Avg:50)
73 Mark Liesegang Burralga Thunderbolt Lame L1 1:53:00 21.2 21.24 40, 52 (Avg:52)
98 Gavin Bartlett Palmview Silver Reuben Heart Rate L1 3:42:00 10.8 10.81 41, 57 (Avg:57)
Middleweight
43 Virginia Barber Rodborough Samira 1 (BC) 4:23:00 18.7, 17.7 18.25 35, 49, 49 (Avg:49)
3 Danielle Kendall Zelda te 2 5:25:00 15.7, 13.8 14.77 37, 51, 53 (Avg:52)
97 Matthew Sample Stirling's Macca 3 5:34:00 14.5, 14.2 14.37 44, 52, 52 (Avg:52)
127 Suwati Lowth Berwick The Admiral 4 6:49:00 12.3, 11.1 11.74 39, 44, 51 (Avg:47)
68 Steve Gray Shardell Indian Storm 5 7:00:00 11.4, 11.3 11.43 34, 39, 41 (Avg:40)
96 Timothy Humphries Burralga Athena 6 7:05:00 11.2, 11.3 11.29 40, 44, 48 (Avg:46)
52 Gayle Holmes Heathfield's Shakira 7 7:42:00 10.3, 10.4 10.39 42, 39, 43 (Avg:41)
93 Camille Fitton Rothlynne Prince Valiant Lame L2 6:15:00 12.4, 13.1 12.80 33, 44, 54 (Avg:49)
82 Mindy Davies Reid River R-Mani Lame L1 2:31:00 15.8 15.89 42, 49 (Avg:49)
95 Tia Koning-Cabenalevu Naeswan Sabik Lame L1 3:33:00 11.2 11.27 37, 55 (Avg:55)
63 Kelly Broderick Lanamere Britney Lame L1 3:55:00 10.2 10.21 37, 52 (Avg:52)
70 Kirsty Nicholson Arabec Atlas Heart Rate L1 3:56:00 10.1 10.17 34, 59 (Avg:59)
Lightweight
107 Vic Alran Flemingo Diego 1 5:18:00 14.9, 15.2 15.09 36, 52, 51 (Avg:51)
60 Clare Fleming Warrawee Gay Paree 1 (BC) 5:18:00 14.9, 15.2 15.09 29, 43, 44 (Avg:43)
94 Karen Winkel Ranek Boz 3 6:07:00 13.9, 12.3 13.08 38, 52, 56 (Avg:54)
103 Alexandra Toft Stevie Wonder te 4 6:15:00 12.4, 13.1 12.80 37, 48, 50 (Avg:49)
81 Tilly Gilbert Take The Cash Thamani 5 6:36:00 12.2, 11.9 12.12 38, 48, 50 (Avg:49)
51 Sonya Ryan Kholonial Lightning Jack 6 7:28:00 10.2, 11.2 10.71 40, 51, 55 (Avg:53)
110 Naomi Lee Tora Madrid 7 7:46:00 11.3, 9.4 10.30 48, 54, 51 (Avg:52)
58 Janelle Taylor Elite Samaree Heart Rate L2 5:19:00 14.9, 15.1 15.05 36, 54, 69 (Avg:61)
111 Shelley Chapman Shanelli-Park Shazam Lame L2 6:54:00 11.4, 11.7 11.59 42, 49, 54 (Avg:51)
Junior
118 Eadie McWilliam Beaudacious te 1 (BC) 6:15:00 12.3, 13.2 12.80 34, 43, 46 (Avg:44)
91 Mikaylah Newberry Flemingo Klaus 2 6:48:00 11.4, 12.0 11.76 38, 46, 49 (Avg:47)
92 Abel Hezekiah Tazar 3 6:54:00 11.4, 11.7 11.59 38, 45, 54 (Avg:49)
83 Charlotte Williamson Splendacrest Clara 4 7:28:00 10.1, 11.3 10.71 44, 50, 53 (Avg:51)
145 Molly Renner Hugo Boss te 5 7:42:00 10.3, 10.4 10.39 41, 47, 47 (Avg:47)
49 Joey Long El Sharanah Sharif 6 7:44:00 10.1, 10.5 10.34 32, 51, 46 (Avg:48)
123 Georgie Barber Abbeywood Flashdance Heart Rate L2 6:11:00 11.5, 14.7 12.94 41, 52, 64 (Avg:58)
105 Ellie-Rose Bowden Abbeywood Jacks Back Lame L2 7:05:00 11.2, 11.3 11.29 45, 51, 58 (Avg:54)